sensor_id;sensor_type;location;lat;lon;timestamp;P1;durP1;ratioP1;P2;durP2;ratioP2
19733;SDS011;10018;51.230;7.860;2022-12-26T00:00:34;6.93;;;3.50;;
19733;SDS011;10018;51.230;7.860;2022-12-26T00:03:00;6.50;;;3.83;;
19733;SDS011;10018;51.230;7.860;2022-12-26T00:05:25;6.10;;;3.60;;
19733;SDS011;10018;51.230;7.860;2022-12-26T00:07:51;6.20;;;3.60;;
19733;SDS011;10018;51.230;7.860;2022-12-26T00:10:16;5.40;;;3.30;;
19733;SDS011;10018;51.230;7.860;2022-12-26T00:12:42;5.30;;;3.33;;
19733;SDS011;10018;51.230;7.860;2022-12-26T00:15:07;6.23;;;3.30;;
19733;SDS011;10018;51.230;7.860;2022-12-26T00:17:33;7.07;;;3.30;;
19733;SDS011;10018;51.230;7.860;2022-12-26T00:19:58;8.27;;;3.23;;
19733;SDS011;10018;51.230;7.860;2022-12-26T00:22:24;6.97;;;3.33;;
19733;SDS011;10018;51.230;7.860;2022-12-26T00:24:49;6.30;;;3.40;;
19733;SDS011;10018;51.230;7.860;2022-12-26T00:27:15;6.47;;;3.23;;
19733;SDS011;10018;51.230;7.860;2022-12-26T00:29:40;5.57;;;3.20;;
19733;SDS011;10018;51.230;7.860;2022-12-26T00:32:06;5.00;;;3.03;;
19733;SDS011;10018;51.230;7.860;2022-12-26T00:34:31;7.17;;;3.03;;
19733;SDS011;10018;51.230;7.860;2022-12-26T00:36:57;5.87;;;3.00;;
19733;SDS011;10018;51.230;7.860;2022-12-26T00:39:22;5.73;;;3.13;;
19733;SDS011;10018;51.230;7.860;2022-12-26T00:41:48;5.70;;;2.93;;
19733;SDS011;10018;51.230;7.860;2022-12-26T00:44:13;4.73;;;2.80;;
19733;SDS011;10018;51.230;7.860;2022-12-26T00:46:39;5.63;;;2.80;;
19733;SDS011;10018;51.230;7.860;2022-12-26T00:49:04;5.43;;;3.00;;
19733;SDS011;10018;51.230;7.860;2022-12-26T00:51:30;4.50;;;2.60;;
19733;SDS011;10018;51.230;7.860;2022-12-26T00:53:55;6.50;;;2.50;;
19733;SDS011;10018;51.230;7.860;2022-12-26T00:56:21;5.27;;;2.90;;
19733;SDS011;10018;51.230;7.860;2022-12-26T00:58:46;5.97;;;3.00;;
19733;SDS011;10018;51.230;7.860;2022-12-26T01:01:19;4.73;;;2.57;;
19733;SDS011;10018;51.230;7.860;2022-12-26T01:03:46;4.87;;;2.83;;
19733;SDS011;10018;51.230;7.860;2022-12-26T01:06:12;4.73;;;3.00;;
19733;SDS011;10018;51.230;7.860;2022-12-26T01:08:39;5.23;;;2.80;;
19733;SDS011;10018;51.230;7.860;2022-12-26T01:11:06;9.77;;;3.07;;
19733;SDS011;10018;51.230;7.860;2022-12-26T01:13:35;4.37;;;2.70;;
19733;SDS011;10018;51.230;7.860;2022-12-26T01:16:01;8.63;;;3.30;;
19733;SDS011;10018;51.230;7.860;2022-12-26T01:18:28;7.23;;;3.53;;
19733;SDS011;10018;51.230;7.860;2022-12-26T01:21:01;5.53;;;3.00;;
19733;SDS011;10018;51.230;7.860;2022-12-26T01:23:29;4.70;;;2.80;;
19733;SDS011;10018;51.230;7.860;2022-12-26T01:25:55;5.77;;;3.43;;
19733;SDS011;10018;51.230;7.860;2022-12-26T01:28:21;5.87;;;3.07;;
19733;SDS011;10018;51.230;7.860;2022-12-26T01:30:46;5.50;;;3.10;;
19733;SDS011;10018;51.230;7.860;2022-12-26T01:33:12;5.20;;;3.00;;
19733;SDS011;10018;51.230;7.860;2022-12-26T01:35:37;6.00;;;3.53;;
19733;SDS011;10018;51.230;7.860;2022-12-26T01:38:03;7.60;;;3.20;;
19733;SDS011;10018;51.230;7.860;2022-12-26T01:40:28;6.23;;;3.20;;
19733;SDS011;10018;51.230;7.860;2022-12-26T01:42:54;6.23;;;3.33;;
19733;SDS011;10018;51.230;7.860;2022-12-26T01:45:21;5.27;;;2.93;;
19733;SDS011;10018;51.230;7.860;2022-12-26T01:48:01;6.40;;;3.20;;
19733;SDS011;10018;51.230;7.860;2022-12-26T01:50:34;5.93;;;2.77;;
19733;SDS011;10018;51.230;7.860;2022-12-26T01:53:19;6.17;;;2.80;;
19733;SDS011;10018;51.230;7.860;2022-12-26T01:55:57;5.70;;;2.40;;
19733;SDS011;10018;51.230;7.860;2022-12-26T01:58:30;5.03;;;2.57;;
19733;SDS011;10018;51.230;7.860;2022-12-26T02:00:59;4.20;;;2.43;;
19733;SDS011;10018;51.230;7.860;2022-12-26T02:03:28;5.93;;;2.53;;
19733;SDS011;10018;51.230;7.860;2022-12-26T02:06:12;4.63;;;2.20;;
19733;SDS011;10018;51.230;7.860;2022-12-26T02:08:39;4.63;;;2.43;;
19733;SDS011;10018;51.230;7.860;2022-12-26T02:11:40;9.03;;;2.40;;
19733;SDS011;10018;51.230;7.860;2022-12-26T02:14:03;4.93;;;2.60;;
19733;SDS011;10018;51.230;7.860;2022-12-26T02:16:31;6.33;;;2.40;;
19733;SDS011;10018;51.230;7.860;2022-12-26T02:18:57;6.17;;;2.50;;
19733;SDS011;10018;51.230;7.860;2022-12-26T02:24:09;4.20;;;2.43;;
19733;SDS011;10018;51.230;7.860;2022-12-26T02:27:09;3.90;;;2.10;;
19733;SDS011;10018;51.230;7.860;2022-12-26T02:33:14;5.67;;;2.60;;
19733;SDS011;10018;51.230;7.860;2022-12-26T02:41:17;4.47;;;2.60;;
19733;SDS011;10018;51.230;7.860;2022-12-26T02:46:50;4.23;;;2.37;;
19733;SDS011;10018;51.230;7.860;2022-12-26T02:52:55;6.17;;;2.37;;
19733;SDS011;10018;51.230;7.860;2022-12-26T02:55:44;6.87;;;2.40;;
19733;SDS011;10018;51.230;7.860;2022-12-26T02:58:35;5.13;;;2.47;;
19733;SDS011;10018;51.230;7.860;2022-12-26T03:01:29;5.93;;;2.47;;
19733;SDS011;10018;51.230;7.860;2022-12-26T03:04:19;4.50;;;2.10;;
19733;SDS011;10018;51.230;7.860;2022-12-26T03:07:10;6.53;;;2.30;;
19733;SDS011;10018;51.230;7.860;2022-12-26T03:09:58;6.37;;;2.47;;
19733;SDS011;10018;51.230;7.860;2022-12-26T03:12:55;8.27;;;2.17;;
19733;SDS011;10018;51.230;7.860;2022-12-26T03:15:44;6.77;;;2.70;;
19733;SDS011;10018;51.230;7.860;2022-12-26T03:18:35;5.80;;;2.30;;
19733;SDS011;10018;51.230;7.860;2022-12-26T03:21:05;5.27;;;2.30;;
19733;SDS011;10018;51.230;7.860;2022-12-26T03:23:32;5.00;;;2.30;;
19733;SDS011;10018;51.230;7.860;2022-12-26T03:26:01;7.77;;;2.53;;
19733;SDS011;10018;51.230;7.860;2022-12-26T03:28:49;7.23;;;2.50;;
19733;SDS011;10018;51.230;7.860;2022-12-26T03:31:15;6.33;;;2.40;;
19733;SDS011;10018;51.230;7.860;2022-12-26T03:33:42;6.20;;;2.53;;
19733;SDS011;10018;51.230;7.860;2022-12-26T03:36:35;5.17;;;2.20;;
19733;SDS011;10018;51.230;7.860;2022-12-26T03:39:28;6.83;;;2.67;;
19733;SDS011;10018;51.230;7.860;2022-12-26T03:42:35;4.20;;;2.23;;
19733;SDS011;10018;51.230;7.860;2022-12-26T03:45:48;6.83;;;2.20;;
19733;SDS011;10018;51.230;7.860;2022-12-26T03:51:47;3.90;;;2.10;;
19733;SDS011;10018;51.230;7.860;2022-12-26T03:54:45;4.93;;;2.33;;
19733;SDS011;10018;51.230;7.860;2022-12-26T03:57:44;4.60;;;2.50;;
19733;SDS011;10018;51.230;7.860;2022-12-26T04:00:43;9.90;;;2.63;;
19733;SDS011;10018;51.230;7.860;2022-12-26T04:03:30;5.87;;;2.50;;
19733;SDS011;10018;51.230;7.860;2022-12-26T04:06:17;7.70;;;2.67;;
19733;SDS011;10018;51.230;7.860;2022-12-26T04:09:15;6.20;;;2.67;;
19733;SDS011;10018;51.230;7.860;2022-12-26T04:12:08;4.87;;;2.90;;
19733;SDS011;10018;51.230;7.860;2022-12-26T04:15:03;9.10;;;3.30;;
19733;SDS011;10018;51.230;7.860;2022-12-26T04:17:58;6.17;;;2.53;;
19733;SDS011;10018;51.230;7.860;2022-12-26T04:21:06;6.70;;;2.57;;
19733;SDS011;10018;51.230;7.860;2022-12-26T04:23:59;5.97;;;2.47;;
19733;SDS011;10018;51.230;7.860;2022-12-26T04:26:50;8.87;;;3.10;;
19733;SDS011;10018;51.230;7.860;2022-12-26T04:29:38;5.53;;;2.53;;
19733;SDS011;10018;51.230;7.860;2022-12-26T04:32:33;6.17;;;2.67;;
19733;SDS011;10018;51.230;7.860;2022-12-26T04:38:13;3.30;;;2.20;;
19733;SDS011;10018;51.230;7.860;2022-12-26T04:41:02;4.13;;;2.00;;
19733;SDS011;10018;51.230;7.860;2022-12-26T04:43:48;5.30;;;2.30;;
19733;SDS011;10018;51.230;7.860;2022-12-26T04:46:38;2.07;;;1.30;;
19733;SDS011;10018;51.230;7.860;2022-12-26T04:49:06;2.87;;;1.20;;
19733;SDS011;10018;51.230;7.860;2022-12-26T04:51:52;2.57;;;1.20;;
19733;SDS011;10018;51.230;7.860;2022-12-26T04:54:20;2.00;;;1.10;;
19733;SDS011;10018;51.230;7.860;2022-12-26T04:56:45;2.80;;;1.50;;
19733;SDS011;10018;51.230;7.860;2022-12-26T04:59:11;2.37;;;1.60;;
19733;SDS011;10018;51.230;7.860;2022-12-26T05:01:36;1.53;;;1.00;;
19733;SDS011;10018;51.230;7.860;2022-12-26T05:04:20;2.00;;;1.17;;
19733;SDS011;10018;51.230;7.860;2022-12-26T05:07:08;1.67;;;1.03;;
19733;SDS011;10018;51.230;7.860;2022-12-26T05:09:58;2.30;;;1.13;;
19733;SDS011;10018;51.230;7.860;2022-12-26T05:12:23;1.53;;;1.10;;
19733;SDS011;10018;51.230;7.860;2022-12-26T05:14:49;2.50;;;1.27;;
19733;SDS011;10018;51.230;7.860;2022-12-26T05:17:14;1.90;;;1.20;;
19733;SDS011;10018;51.230;7.860;2022-12-26T05:19:58;1.80;;;1.10;;
19733;SDS011;10018;51.230;7.860;2022-12-26T05:22:43;2.07;;;1.20;;
19733;SDS011;10018;51.230;7.860;2022-12-26T05:25:30;6.40;;;1.60;;
19733;SDS011;10018;51.230;7.860;2022-12-26T05:28:17;4.07;;;1.57;;
19733;SDS011;10018;51.230;7.860;2022-12-26T05:31:02;3.40;;;2.23;;
19733;SDS011;10018;51.230;7.860;2022-12-26T05:33:28;2.53;;;1.50;;
19733;SDS011;10018;51.230;7.860;2022-12-26T05:36:12;2.60;;;1.60;;
19733;SDS011;10018;51.230;7.860;2022-12-26T05:38:39;4.17;;;1.50;;
19733;SDS011;10018;51.230;7.860;2022-12-26T05:41:05;4.87;;;2.20;;
19733;SDS011;10018;51.230;7.860;2022-12-26T05:43:30;3.03;;;1.93;;
19733;SDS011;10018;51.230;7.860;2022-12-26T05:45:56;3.17;;;2.00;;
19733;SDS011;10018;51.230;7.860;2022-12-26T05:48:22;5.33;;;2.60;;
19733;SDS011;10018;51.230;7.860;2022-12-26T05:50:48;4.37;;;2.70;;
19733;SDS011;10018;51.230;7.860;2022-12-26T05:53:13;3.83;;;2.70;;
19733;SDS011;10018;51.230;7.860;2022-12-26T05:55:39;4.20;;;2.73;;
19733;SDS011;10018;51.230;7.860;2022-12-26T05:58:05;4.23;;;2.87;;
19733;SDS011;10018;51.230;7.860;2022-12-26T06:00:30;5.60;;;3.00;;
19733;SDS011;10018;51.230;7.860;2022-12-26T06:02:57;5.70;;;3.27;;
19733;SDS011;10018;51.230;7.860;2022-12-26T06:05:23;5.13;;;3.00;;
19733;SDS011;10018;51.230;7.860;2022-12-26T06:07:49;5.33;;;3.30;;
19733;SDS011;10018;51.230;7.860;2022-12-26T06:10:14;7.00;;;3.90;;
19733;SDS011;10018;51.230;7.860;2022-12-26T06:12:40;5.20;;;4.00;;
19733;SDS011;10018;51.230;7.860;2022-12-26T06:15:05;8.43;;;4.30;;
19733;SDS011;10018;51.230;7.860;2022-12-26T06:17:31;5.60;;;4.10;;
19733;SDS011;10018;51.230;7.860;2022-12-26T06:19:57;5.90;;;3.97;;
19733;SDS011;10018;51.230;7.860;2022-12-26T06:22:22;7.43;;;4.93;;
19733;SDS011;10018;51.230;7.860;2022-12-26T06:24:48;6.27;;;4.57;;
19733;SDS011;10018;51.230;7.860;2022-12-26T06:27:13;6.37;;;4.90;;
19733;SDS011;10018;51.230;7.860;2022-12-26T06:29:39;8.57;;;5.07;;
19733;SDS011;10018;51.230;7.860;2022-12-26T06:32:04;7.10;;;4.97;;
19733;SDS011;10018;51.230;7.860;2022-12-26T06:34:30;7.43;;;4.47;;
19733;SDS011;10018;51.230;7.860;2022-12-26T06:36:56;7.07;;;4.30;;
19733;SDS011;10018;51.230;7.860;2022-12-26T06:39:21;5.80;;;4.27;;
19733;SDS011;10018;51.230;7.860;2022-12-26T06:41:48;4.53;;;3.30;;
19733;SDS011;10018;51.230;7.860;2022-12-26T06:44:14;5.50;;;3.70;;
19733;SDS011;10018;51.230;7.860;2022-12-26T06:46:40;3.93;;;2.97;;
19733;SDS011;10018;51.230;7.860;2022-12-26T06:49:05;3.27;;;2.60;;
19733;SDS011;10018;51.230;7.860;2022-12-26T06:51:31;4.30;;;2.90;;
19733;SDS011;10018;51.230;7.860;2022-12-26T06:53:57;3.73;;;2.33;;
19733;SDS011;10018;51.230;7.860;2022-12-26T06:56:26;3.87;;;1.90;;
19733;SDS011;10018;51.230;7.860;2022-12-26T06:58:52;4.43;;;2.60;;
19733;SDS011;10018;51.230;7.860;2022-12-26T07:01:22;2.57;;;1.60;;
19733;SDS011;10018;51.230;7.860;2022-12-26T07:03:50;2.03;;;1.30;;
19733;SDS011;10018;51.230;7.860;2022-12-26T07:08:56;2.37;;;1.20;;
19733;SDS011;10018;51.230;7.860;2022-12-26T07:11:28;3.37;;;2.10;;
19733;SDS011;10018;51.230;7.860;2022-12-26T07:13:55;3.00;;;1.10;;
19733;SDS011;10018;51.230;7.860;2022-12-26T07:16:21;8.43;;;5.43;;
19733;SDS011;10018;51.230;7.860;2022-12-26T07:18:47;4.03;;;2.07;;
19733;SDS011;10018;51.230;7.860;2022-12-26T07:21:15;1.90;;;0.80;;
19733;SDS011;10018;51.230;7.860;2022-12-26T07:23:40;2.37;;;1.07;;
19733;SDS011;10018;51.230;7.860;2022-12-26T07:26:06;2.23;;;0.90;;
19733;SDS011;10018;51.230;7.860;2022-12-26T07:28:32;1.87;;;0.77;;
19733;SDS011;10018;51.230;7.860;2022-12-26T07:30:58;4.07;;;1.30;;
19733;SDS011;10018;51.230;7.860;2022-12-26T07:33:25;1.73;;;1.03;;
19733;SDS011;10018;51.230;7.860;2022-12-26T07:35:52;4.33;;;1.30;;
19733;SDS011;10018;51.230;7.860;2022-12-26T07:38:18;2.83;;;1.30;;
19733;SDS011;10018;51.230;7.860;2022-12-26T07:40:43;2.50;;;1.40;;
19733;SDS011;10018;51.230;7.860;2022-12-26T07:43:09;1.30;;;0.80;;
19733;SDS011;10018;51.230;7.860;2022-12-26T07:45:35;3.47;;;0.80;;
19733;SDS011;10018;51.230;7.860;2022-12-26T07:48:00;1.93;;;0.97;;
19733;SDS011;10018;51.230;7.860;2022-12-26T07:50:26;3.30;;;1.00;;
19733;SDS011;10018;51.230;7.860;2022-12-26T07:52:52;2.30;;;1.40;;
19733;SDS011;10018;51.230;7.860;2022-12-26T07:55:18;3.13;;;1.30;;
19733;SDS011;10018;51.230;7.860;2022-12-26T07:57:44;3.17;;;1.00;;
19733;SDS011;10018;51.230;7.860;2022-12-26T08:00:14;3.10;;;1.03;;
19733;SDS011;10018;51.230;7.860;2022-12-26T08:02:39;2.80;;;1.70;;
19733;SDS011;10018;51.230;7.860;2022-12-26T08:05:05;3.20;;;1.87;;
19733;SDS011;10018;51.230;7.860;2022-12-26T08:07:31;2.37;;;1.53;;
19733;SDS011;10018;51.230;7.860;2022-12-26T08:09:56;3.93;;;1.80;;
19733;SDS011;10018;51.230;7.860;2022-12-26T08:12:22;7.97;;;3.90;;
19733;SDS011;10018;51.230;7.860;2022-12-26T08:14:48;5.23;;;3.10;;
19733;SDS011;10018;51.230;7.860;2022-12-26T08:17:14;2.97;;;1.93;;
19733;SDS011;10018;51.230;7.860;2022-12-26T08:19:40;2.67;;;1.47;;
19733;SDS011;10018;51.230;7.860;2022-12-26T08:22:05;2.83;;;1.43;;
19733;SDS011;10018;51.230;7.860;2022-12-26T08:24:31;2.50;;;1.33;;
19733;SDS011;10018;51.230;7.860;2022-12-26T08:26:56;3.03;;;1.50;;
19733;SDS011;10018;51.230;7.860;2022-12-26T08:29:22;3.07;;;1.70;;
19733;SDS011;10018;51.230;7.860;2022-12-26T08:31:47;5.10;;;2.30;;
19733;SDS011;10018;51.230;7.860;2022-12-26T08:34:13;1.33;;;0.93;;
19733;SDS011;10018;51.230;7.860;2022-12-26T08:36:39;1.77;;;1.20;;
19733;SDS011;10018;51.230;7.860;2022-12-26T08:39:04;1.80;;;1.10;;
19733;SDS011;10018;51.230;7.860;2022-12-26T08:41:30;2.47;;;1.20;;
19733;SDS011;10018;51.230;7.860;2022-12-26T08:43:56;3.80;;;1.67;;
19733;SDS011;10018;51.230;7.860;2022-12-26T08:46:21;2.67;;;1.70;;
19733;SDS011;10018;51.230;7.860;2022-12-26T08:48:47;2.20;;;1.40;;
19733;SDS011;10018;51.230;7.860;2022-12-26T08:51:23;1.57;;;1.10;;
19733;SDS011;10018;51.230;7.860;2022-12-26T08:53:50;2.20;;;1.33;;
19733;SDS011;10018;51.230;7.860;2022-12-26T08:56:18;2.60;;;1.40;;
19733;SDS011;10018;51.230;7.860;2022-12-26T08:58:49;2.20;;;1.63;;
19733;SDS011;10018;51.230;7.860;2022-12-26T09:01:16;3.83;;;2.30;;
19733;SDS011;10018;51.230;7.860;2022-12-26T09:03:46;4.70;;;2.50;;
19733;SDS011;10018;51.230;7.860;2022-12-26T09:06:12;3.50;;;2.23;;
19733;SDS011;10018;51.230;7.860;2022-12-26T09:08:39;6.20;;;2.17;;
19733;SDS011;10018;51.230;7.860;2022-12-26T09:11:06;4.03;;;2.50;;
19733;SDS011;10018;51.230;7.860;2022-12-26T09:13:35;3.80;;;2.67;;
19733;SDS011;10018;51.230;7.860;2022-12-26T09:16:08;4.83;;;3.03;;
19733;SDS011;10018;51.230;7.860;2022-12-26T09:18:36;4.00;;;2.73;;
19733;SDS011;10018;51.230;7.860;2022-12-26T09:21:02;4.17;;;2.80;;
19733;SDS011;10018;51.230;7.860;2022-12-26T09:23:30;5.03;;;3.30;;
19733;SDS011;10018;51.230;7.860;2022-12-26T09:26:02;6.77;;;3.40;;
19733;SDS011;10018;51.230;7.860;2022-12-26T09:28:29;6.53;;;4.03;;
19733;SDS011;10018;51.230;7.860;2022-12-26T09:30:58;6.53;;;3.73;;
19733;SDS011;10018;51.230;7.860;2022-12-26T09:33:27;8.03;;;4.37;;
19733;SDS011;10018;51.230;7.860;2022-12-26T09:35:53;7.03;;;4.23;;
19733;SDS011;10018;51.230;7.860;2022-12-26T09:38:18;6.77;;;4.20;;
19733;SDS011;10018;51.230;7.860;2022-12-26T09:43:47;7.07;;;4.53;;
19733;SDS011;10018;51.230;7.860;2022-12-26T09:46:43;8.10;;;5.00;;
19733;SDS011;10018;51.230;7.860;2022-12-26T09:49:27;6.10;;;4.47;;
19733;SDS011;10018;51.230;7.860;2022-12-26T09:51:58;7.20;;;3.70;;
19733;SDS011;10018;51.230;7.860;2022-12-26T09:54:37;9.67;;;4.13;;
19733;SDS011;10018;51.230;7.860;2022-12-26T09:57:09;71.97;;;24.27;;
19733;SDS011;10018;51.230;7.860;2022-12-26T09:59:43;7.93;;;4.27;;
19733;SDS011;10018;51.230;7.860;2022-12-26T10:02:21;12.27;;;5.83;;
19733;SDS011;10018;51.230;7.860;2022-12-26T10:04:48;8.30;;;4.13;;
19733;SDS011;10018;51.230;7.860;2022-12-26T10:07:16;10.87;;;6.13;;
19733;SDS011;10018;51.230;7.860;2022-12-26T10:10:09;8.63;;;5.53;;
19733;SDS011;10018;51.230;7.860;2022-12-26T10:12:39;7.07;;;4.10;;
19733;SDS011;10018;51.230;7.860;2022-12-26T10:15:16;8.80;;;3.63;;
19733;SDS011;10018;51.230;7.860;2022-12-26T10:20:26;6.17;;;4.00;;
19733;SDS011;10018;51.230;7.860;2022-12-26T10:25:45;5.47;;;3.73;;
19733;SDS011;10018;51.230;7.860;2022-12-26T10:28:41;8.67;;;5.27;;
19733;SDS011;10018;51.230;7.860;2022-12-26T10:31:57;6.13;;;4.20;;
19733;SDS011;10018;51.230;7.860;2022-12-26T10:34:29;6.63;;;3.63;;
19733;SDS011;10018;51.230;7.860;2022-12-26T10:36:59;8.83;;;4.00;;
19733;SDS011;10018;51.230;7.860;2022-12-26T10:42:29;5.73;;;2.97;;
19733;SDS011;10018;51.230;7.860;2022-12-26T10:45:14;9.93;;;3.10;;
19733;SDS011;10018;51.230;7.860;2022-12-26T10:47:43;7.80;;;3.90;;
19733;SDS011;10018;51.230;7.860;2022-12-26T10:50:14;8.07;;;3.70;;
19733;SDS011;10018;51.230;7.860;2022-12-26T10:52:42;6.93;;;4.10;;
19733;SDS011;10018;51.230;7.860;2022-12-26T10:55:14;7.07;;;4.10;;
19733;SDS011;10018;51.230;7.860;2022-12-26T10:57:43;9.07;;;4.50;;
19733;SDS011;10018;51.230;7.860;2022-12-26T11:00:23;6.90;;;4.13;;
19733;SDS011;10018;51.230;7.860;2022-12-26T11:05:39;6.67;;;3.53;;
19733;SDS011;10018;51.230;7.860;2022-12-26T11:10:38;5.93;;;3.17;;
19733;SDS011;10018;51.230;7.860;2022-12-26T11:13:14;6.03;;;3.17;;
19733;SDS011;10018;51.230;7.860;2022-12-26T11:15:48;8.10;;;4.80;;
19733;SDS011;10018;51.230;7.860;2022-12-26T11:20:47;3.87;;;1.70;;
19733;SDS011;10018;51.230;7.860;2022-12-26T11:23:21;6.17;;;2.33;;
19733;SDS011;10018;51.230;7.860;2022-12-26T11:25:48;7.30;;;3.87;;
19733;SDS011;10018;51.230;7.860;2022-12-26T11:28:19;21.00;;;11.93;;
19733;SDS011;10018;51.230;7.860;2022-12-26T11:30:49;8.33;;;4.70;;
19733;SDS011;10018;51.230;7.860;2022-12-26T11:33:20;5.87;;;3.10;;
19733;SDS011;10018;51.230;7.860;2022-12-26T11:35:48;6.37;;;2.53;;
19733;SDS011;10018;51.230;7.860;2022-12-26T11:38:18;6.40;;;4.00;;
19733;SDS011;10018;51.230;7.860;2022-12-26T11:41:03;4.73;;;2.67;;
19733;SDS011;10018;51.230;7.860;2022-12-26T11:43:52;4.63;;;2.80;;
19733;SDS011;10018;51.230;7.860;2022-12-26T11:46:18;4.17;;;2.20;;
19733;SDS011;10018;51.230;7.860;2022-12-26T11:48:47;5.33;;;2.20;;
19733;SDS011;10018;51.230;7.860;2022-12-26T11:51:14;5.10;;;2.30;;
19733;SDS011;10018;51.230;7.860;2022-12-26T11:53:40;8.30;;;2.70;;
19733;SDS011;10018;51.230;7.860;2022-12-26T11:56:06;6.17;;;3.43;;
19733;SDS011;10018;51.230;7.860;2022-12-26T11:58:33;6.90;;;3.57;;
19733;SDS011;10018;51.230;7.860;2022-12-26T12:03:31;6.47;;;1.93;;
19733;SDS011;10018;51.230;7.860;2022-12-26T12:08:44;6.60;;;2.10;;
19733;SDS011;10018;51.230;7.860;2022-12-26T12:11:28;5.77;;;1.50;;
19733;SDS011;10018;51.230;7.860;2022-12-26T12:14:05;3.77;;;1.73;;
19733;SDS011;10018;51.230;7.860;2022-12-26T12:16:44;4.07;;;1.53;;
19733;SDS011;10018;51.230;7.860;2022-12-26T12:19:37;3.00;;;1.50;;
19733;SDS011;10018;51.230;7.860;2022-12-26T12:25:20;4.90;;;1.60;;
19733;SDS011;10018;51.230;7.860;2022-12-26T12:27:59;3.83;;;1.60;;
19733;SDS011;10018;51.230;7.860;2022-12-26T12:30:40;3.47;;;1.60;;
19733;SDS011;10018;51.230;7.860;2022-12-26T12:33:23;2.50;;;1.30;;
19733;SDS011;10018;51.230;7.860;2022-12-26T12:39:09;4.97;;;1.53;;
19733;SDS011;10018;51.230;7.860;2022-12-26T12:41:54;6.00;;;1.87;;
19733;SDS011;10018;51.230;7.860;2022-12-26T12:50:27;6.40;;;1.67;;
19733;SDS011;10018;51.230;7.860;2022-12-26T12:53:12;4.70;;;1.60;;
19733;SDS011;10018;51.230;7.860;2022-12-26T12:56:02;4.20;;;1.50;;
19733;SDS011;10018;51.230;7.860;2022-12-26T12:59:10;5.93;;;2.03;;
19733;SDS011;10018;51.230;7.860;2022-12-26T13:01:51;8.10;;;3.93;;
19733;SDS011;10018;51.230;7.860;2022-12-26T13:04:28;3.80;;;1.63;;
19733;SDS011;10018;51.230;7.860;2022-12-26T13:07:01;7.17;;;3.27;;
19733;SDS011;10018;51.230;7.860;2022-12-26T13:09:33;7.67;;;3.87;;
19733;SDS011;10018;51.230;7.860;2022-12-26T13:12:10;17.60;;;10.30;;
19733;SDS011;10018;51.230;7.860;2022-12-26T13:14:48;7.80;;;4.00;;
19733;SDS011;10018;51.230;7.860;2022-12-26T13:17:40;6.07;;;1.90;;
19733;SDS011;10018;51.230;7.860;2022-12-26T13:22:54;5.30;;;2.50;;
19733;SDS011;10018;51.230;7.860;2022-12-26T13:25:49;5.37;;;2.50;;
19733;SDS011;10018;51.230;7.860;2022-12-26T13:28:43;7.07;;;2.97;;
19733;SDS011;10018;51.230;7.860;2022-12-26T13:31:20;5.23;;;2.73;;
19733;SDS011;10018;51.230;7.860;2022-12-26T13:33:46;5.10;;;3.40;;
19733;SDS011;10018;51.230;7.860;2022-12-26T13:36:32;5.90;;;3.20;;
19733;SDS011;10018;51.230;7.860;2022-12-26T13:41:27;3.73;;;2.00;;
19733;SDS011;10018;51.230;7.860;2022-12-26T13:57:19;2.97;;;1.20;;
19733;SDS011;10018;51.230;7.860;2022-12-26T13:59:58;6.70;;;1.70;;
19733;SDS011;10018;51.230;7.860;2022-12-26T14:02:43;4.33;;;1.60;;
19733;SDS011;10018;51.230;7.860;2022-12-26T14:05:37;3.50;;;1.30;;
19733;SDS011;10018;51.230;7.860;2022-12-26T14:08:21;2.77;;;1.43;;
19733;SDS011;10018;51.230;7.860;2022-12-26T14:10:55;2.60;;;1.00;;
19733;SDS011;10018;51.230;7.860;2022-12-26T14:13:45;2.13;;;1.10;;
19733;SDS011;10018;51.230;7.860;2022-12-26T14:16:36;3.50;;;1.10;;
19733;SDS011;10018;51.230;7.860;2022-12-26T14:22:03;2.03;;;0.90;;
19733;SDS011;10018;51.230;7.860;2022-12-26T14:24:42;2.00;;;0.90;;
19733;SDS011;10018;51.230;7.860;2022-12-26T14:27:32;3.03;;;0.87;;
19733;SDS011;10018;51.230;7.860;2022-12-26T14:32:42;3.43;;;1.63;;
19733;SDS011;10018;51.230;7.860;2022-12-26T14:38:23;2.50;;;1.60;;
19733;SDS011;10018;51.230;7.860;2022-12-26T14:41:12;3.30;;;1.80;;
19733;SDS011;10018;51.230;7.860;2022-12-26T14:49:21;6.07;;;3.27;;
19733;SDS011;10018;51.230;7.860;2022-12-26T14:51:47;8.03;;;3.50;;
19733;SDS011;10018;51.230;7.860;2022-12-26T14:56:46;8.00;;;3.43;;
19733;SDS011;10018;51.230;7.860;2022-12-26T15:01:59;7.87;;;2.70;;
19733;SDS011;10018;51.230;7.860;2022-12-26T15:04:59;4.30;;;2.30;;
19733;SDS011;10018;51.230;7.860;2022-12-26T15:10:21;4.63;;;2.40;;
19733;SDS011;10018;51.230;7.860;2022-12-26T15:16:00;6.13;;;2.13;;
19733;SDS011;10018;51.230;7.860;2022-12-26T15:21:37;8.97;;;3.83;;
19733;SDS011;10018;51.230;7.860;2022-12-26T15:24:31;11.77;;;4.07;;
19733;SDS011;10018;51.230;7.860;2022-12-26T15:30:15;6.30;;;3.63;;
19733;SDS011;10018;51.230;7.860;2022-12-26T15:35:27;7.90;;;2.73;;
19733;SDS011;10018;51.230;7.860;2022-12-26T15:38:02;7.80;;;3.70;;
19733;SDS011;10018;51.230;7.860;2022-12-26T15:46:38;8.23;;;3.40;;
19733;SDS011;10018;51.230;7.860;2022-12-26T15:57:44;9.53;;;3.60;;
19733;SDS011;10018;51.230;7.860;2022-12-26T16:00:22;7.13;;;3.80;;
19733;SDS011;10018;51.230;7.860;2022-12-26T16:05:52;10.83;;;4.67;;
19733;SDS011;10018;51.230;7.860;2022-12-26T16:11:47;12.50;;;4.87;;
19733;SDS011;10018;51.230;7.860;2022-12-26T16:14:23;10.20;;;5.47;;
19733;SDS011;10018;51.230;7.860;2022-12-26T16:16:49;9.67;;;5.50;;
19733;SDS011;10018;51.230;7.860;2022-12-26T16:19:17;8.73;;;5.03;;
19733;SDS011;10018;51.230;7.860;2022-12-26T16:21:49;12.50;;;7.20;;
19733;SDS011;10018;51.230;7.860;2022-12-26T16:24:37;13.23;;;6.80;;
19733;SDS011;10018;51.230;7.860;2022-12-26T16:27:04;13.93;;;7.60;;
19733;SDS011;10018;51.230;7.860;2022-12-26T16:29:33;10.57;;;6.00;;
19733;SDS011;10018;51.230;7.860;2022-12-26T16:32:06;11.43;;;6.33;;
19733;SDS011;10018;51.230;7.860;2022-12-26T16:34:33;12.20;;;7.77;;
19733;SDS011;10018;51.230;7.860;2022-12-26T16:37:00;17.13;;;9.23;;
19733;SDS011;10018;51.230;7.860;2022-12-26T16:39:27;17.00;;;10.00;;
19733;SDS011;10018;51.230;7.860;2022-12-26T16:42:00;17.07;;;10.47;;
19733;SDS011;10018;51.230;7.860;2022-12-26T16:44:29;15.77;;;10.20;;
19733;SDS011;10018;51.230;7.860;2022-12-26T16:47:00;16.63;;;10.80;;
19733;SDS011;10018;51.230;7.860;2022-12-26T16:49:29;22.13;;;11.50;;
19733;SDS011;10018;51.230;7.860;2022-12-26T16:51:56;18.17;;;10.93;;
19733;SDS011;10018;51.230;7.860;2022-12-26T16:54:34;20.97;;;11.53;;
19733;SDS011;10018;51.230;7.860;2022-12-26T16:57:10;18.17;;;11.03;;
19733;SDS011;10018;51.230;7.860;2022-12-26T17:02:24;17.23;;;10.77;;
19733;SDS011;10018;51.230;7.860;2022-12-26T17:04:57;19.10;;;11.20;;
19733;SDS011;10018;51.230;7.860;2022-12-26T17:07:28;14.53;;;9.70;;
19733;SDS011;10018;51.230;7.860;2022-12-26T17:09:55;14.00;;;8.50;;
19733;SDS011;10018;51.230;7.860;2022-12-26T17:12:33;14.50;;;7.87;;
19733;SDS011;10018;51.230;7.860;2022-12-26T17:15:00;11.67;;;6.57;;
19733;SDS011;10018;51.230;7.860;2022-12-26T17:17:31;13.17;;;6.37;;
19733;SDS011;10018;51.230;7.860;2022-12-26T17:20:25;12.40;;;5.73;;
19733;SDS011;10018;51.230;7.860;2022-12-26T17:22:46;11.87;;;5.97;;
19733;SDS011;10018;51.230;7.860;2022-12-26T17:27:42;10.77;;;5.43;;
19733;SDS011;10018;51.230;7.860;2022-12-26T17:30:20;9.73;;;5.90;;
19733;SDS011;10018;51.230;7.860;2022-12-26T17:32:51;8.47;;;5.37;;
19733;SDS011;10018;51.230;7.860;2022-12-26T17:35:18;11.07;;;5.50;;
19733;SDS011;10018;51.230;7.860;2022-12-26T17:37:48;15.70;;;6.03;;
19733;SDS011;10018;51.230;7.860;2022-12-26T17:40:20;12.13;;;5.30;;
19733;SDS011;10018;51.230;7.860;2022-12-26T17:42:51;13.07;;;5.70;;
19733;SDS011;10018;51.230;7.860;2022-12-26T17:45:29;10.03;;;5.67;;